Time;durP1;ratioP1;P1;durP2;ratioP2;P2;SDS_P1;SDS_P2;PMS_P1;PMS_P2;Temp;Humidity;BMP_temperature;BMP_pressure;BME280_temperature;BME280_humidity;BME280_pressure;Samples;Min_cycle;Max_cycle;Signal;HPM_P1;HPM_P2
2022/12/31 00:02:21;;;;;;;0.10;0.10;;;;;;;19.43;100.00;100130.03;5113691;28;20036;-57
2022/12/31 00:04:47;;;;;;;0.00;0.00;;;;;;;18.86;100.00;100135.38;5114234;28;20024;-59
2022/12/31 00:07:13;;;;;;;0.10;0.10;;;;;;;18.82;100.00;100116.16;5112020;28;20060;-57
2022/12/31 00:09:38;;;;;;;0.10;0.10;;;;;;;19.24;100.00;100122.44;5112263;28;20096;-60
2022/12/31 00:12:04;;;;;;;0.20;0.20;;;;;;;20.17;100.00;100122.31;5115562;28;20043;-60
2022/12/31 00:14:30;;;;;;;0.10;0.10;;;;;;;19.18;100.00;100120.84;5113083;28;20028;-58
2022/12/31 00:16:56;;;;;;;;;;;;;;;19.46;100.00;100130.28;5112731;28;20422;-60
2022/12/31 00:19:21;;;;;;;0.00;0.00;;;;;;;18.82;100.00;100123.47;5113658;28;19943;-60
2022/12/31 00:21:46;;;;;;;0.00;0.00;;;;;;;18.42;100.00;100142.84;5112661;28;20057;-60
2022/12/31 00:24:12;;;;;;;0.00;0.00;;;;;;;18.62;100.00;100138.59;5113801;28;20035;-59
2022/12/31 00:26:37;;;;;;;1.03;1.03;;;;;;;18.78;100.00;100139.44;5114636;28;20024;-60
2022/12/31 00:29:04;;;;;;;1.17;1.10;;;;;;;18.73;100.00;100153.78;5112609;28;20101;-60
2022/12/31 00:31:35;;;;;;;0.00;0.00;;;;;;;18.53;100.00;100159.16;5112224;28;20036;-61
2022/12/31 00:34:01;;;;;;;0.10;0.10;;;;;;;18.62;100.00;100173.78;5113030;28;20054;-61
2022/12/31 00:36:30;;;;;;;0.00;0.00;;;;;;;19.84;100.00;100165.25;5115430;28;20280;-61
2022/12/31 00:38:57;;;;;;;0.00;0.00;;;;;;;20.14;100.00;100163.56;5113663;28;20058;-60
2022/12/31 00:41:24;;;;;;;0.00;0.00;;;;;;;19.62;100.00;100147.38;5114471;28;20286;-61
2022/12/31 00:43:49;;;;;;;;;;;;;;;19.99;100.00;100155.47;5113892;28;20279;-61
2022/12/31 00:46:16;;;;;;;0.73;0.73;;;;;;;20.20;100.00;100157.03;5109403;28;19918;-61
2022/12/31 00:48:42;;;;;;;0.00;0.00;;;;;;;19.24;100.00;100154.16;5112328;28;20032;-61
2022/12/31 00:51:10;;;;;;;0.03;0.03;;;;;;;19.31;100.00;100163.66;5113945;28;20036;-61
2022/12/31 00:53:36;;;;;;;0.00;0.00;;;;;;;19.69;100.00;100174.19;5114017;28;20039;-60
2022/12/31 00:56:06;;;;;;;0.20;0.20;;;;;;;19.81;100.00;100162.28;5108404;28;20272;-59
2022/12/31 00:58:35;;;;;;;0.00;0.00;;;;;;;20.14;100.00;100160.88;5111762;28;20068;-61
2022/12/31 01:01:13;;;;;;;3.10;0.70;;;;;;;20.07;100.00;100163.06;5111121;28;20273;-60
2022/12/31 01:03:39;;;;;;;0.00;0.00;;;;;;;19.99;100.00;100160.91;5112267;28;20276;-60
2022/12/31 01:06:05;;;;;;;0.40;0.40;;;;;;;20.27;100.00;100150.47;5108996;28;20287;-60
2022/12/31 01:08:31;;;;;;;0.10;0.10;;;;;;;20.48;100.00;100143.09;5112384;28;20056;-60
2022/12/31 01:13:48;;;;;;;0.17;0.17;;;;;;;20.04;100.00;100150.84;5108111;28;20260;-61
2022/12/31 01:16:15;;;;;;;0.23;0.23;;;;;;;19.97;100.00;100152.22;5108180;28;20281;-61
2022/12/31 01:18:40;;;;;;;0.00;0.00;;;;;;;19.94;100.00;100147.34;5111160;28;20276;-61
2022/12/31 01:21:08;;;;;;;0.10;0.10;;;;;;;20.60;100.00;100140.81;5116253;28;20291;-61
2022/12/31 01:23:34;;;;;;;0.20;0.20;;;;;;;19.96;100.00;100139.75;5101478;28;20091;-60
2022/12/31 01:26:04;;;;;;;0.03;0.03;;;;;;;20.19;100.00;100133.69;5114160;28;20280;-60
2022/12/31 01:28:30;;;;;;;0.10;0.10;;;;;;;20.39;100.00;100129.28;5114533;28;20265;-61
2022/12/31 01:30:56;;;;;;;0.10;0.10;;;;;;;20.36;100.00;100137.97;5115043;28;20303;-60
2022/12/31 01:33:22;;;;;;;0.30;0.30;;;;;;;20.05;100.00;100143.50;5112479;28;20040;-60
2022/12/31 01:35:50;;;;;;;0.10;0.10;;;;;;;19.92;100.00;100143.00;5111852;28;20057;-60
2022/12/31 01:38:16;;;;;;;0.10;0.10;;;;;;;20.54;100.00;100152.81;5115544;28;20260;-61
2022/12/31 01:40:42;;;;;;;0.10;0.10;;;;;;;20.41;100.00;100151.53;5114291;28;20032;-61
2022/12/31 01:43:19;;;;;;;0.10;0.10;;;;;;;20.00;100.00;100148.94;5113824;28;20280;-60
2022/12/31 01:45:46;;;;;;;0.00;0.00;;;;;;;20.09;100.00;100154.63;5113351;28;20030;-60
2022/12/31 01:48:15;;;;;;;0.00;0.00;;;;;;;20.41;100.00;100153.41;5115743;28;20035;-60
2022/12/31 01:50:42;;;;;;;0.00;0.00;;;;;;;20.52;100.00;100155.00;5114194;28;20265;-60
2022/12/31 01:53:09;;;;;;;0.00;0.00;;;;;;;20.37;100.00;100172.19;5114195;28;20273;-59
2022/12/31 01:55:42;;;;;;;2.33;1.43;;;;;;;19.40;100.00;100177.47;5112264;28;20044;-60
2022/12/31 01:58:13;;;;;;;0.03;0.03;;;;;;;19.53;100.00;100184.25;5115317;28;20272;-59
2022/12/31 02:00:39;;;;;;;0.10;0.10;;;;;;;19.47;100.00;100188.06;5115325;28;20286;-60
2022/12/31 02:03:06;;;;;;;0.10;0.10;;;;;;;19.51;100.00;100199.19;5111472;28;20272;-60
2022/12/31 02:05:44;;;;;;;0.10;0.10;;;;;;;19.44;100.00;100200.25;5113912;28;20028;-59
2022/12/31 02:08:10;;;;;;;0.00;0.00;;;;;;;19.26;100.00;100184.50;5116927;28;20297;-61
2022/12/31 02:10:36;;;;;;;0.98;0.95;;;;;;;19.77;100.00;100160.09;5111544;28;20256;-60
2022/12/31 02:13:03;;;;;;;1.02;0.75;;;;;;;18.96;100.00;100162.50;5090575;28;20037;-60
2022/12/31 02:16:12;;;;;;;0.08;0.08;;;;;;;18.63;100.00;100159.16;5115436;28;20043;-60
2022/12/31 02:18:48;;;;;;;0.97;0.40;;;;;;;19.29;100.00;100154.97;5053866;28;20160;-60
2022/12/31 02:21:32;;;;;;;2.90;1.25;;;;;;;19.04;100.00;100153.06;5056763;28;20275;-60
2022/12/31 02:24:35;;;;;;;0.03;0.03;;;;;;;18.76;100.00;100150.53;5095192;28;20040;-58
2022/12/31 02:27:11;;;;;;;0.13;0.13;;;;;;;18.76;100.00;100152.44;5111624;28;20267;-58
2022/12/31 02:30:20;;;;;;;0.00;0.00;;;;;;;18.57;100.00;100154.81;5111682;28;20268;-60
2022/12/31 02:33:02;;;;;;;0.00;0.00;;;;;;;18.33;100.00;100157.97;5001168;28;20154;-60
2022/12/31 02:35:51;;;;;;;0.03;0.03;;;;;;;18.14;100.00;100147.59;5116850;28;20079;-59
2022/12/31 02:38:23;;;;;;;0.27;0.27;;;;;;;18.96;100.00;100138.13;5111430;28;20253;-61
2022/12/31 02:40:49;;;;;;;0.20;0.20;;;;;;;18.12;100.00;100144.34;5110678;28;20284;-60
2022/12/31 02:43:14;;;;;;;0.00;0.00;;;;;;;17.82;100.00;100155.78;5122838;28;20355;-61
2022/12/31 02:45:43;;;;;;;0.00;0.00;;;;;;;18.09;100.00;100155.69;5119222;28;20028;-60
2022/12/31 02:48:37;;;;;;;0.73;0.73;;;;;;;17.77;100.00;100148.47;5118829;28;20058;-59
2022/12/31 02:51:05;;;;;;;0.10;0.10;;;;;;;18.28;100.00;100144.44;5122507;28;20267;-58
2022/12/31 02:53:40;;;;;;;0.00;0.00;;;;;;;19.08;100.00;100153.34;5120246;28;20265;-59
2022/12/31 02:56:48;;;;;;;0.00;0.00;;;;;;;19.78;100.00;100158.19;5122251;28;20272;-58
2022/12/31 03:02:18;;;;;;;0.20;0.20;;;;;;;19.42;100.00;100163.66;5120588;28;20032;-60
2022/12/31 03:05:04;;;;;;;0.13;0.13;;;;;;;19.98;100.00;100167.41;5120161;28;20268;-59
2022/12/31 03:07:31;;;;;;;0.27;0.27;;;;;;;20.60;100.00;100167.19;5119448;28;20300;-59
2022/12/31 03:09:57;;;;;;;;;;;;;;;20.53;100.00;100174.81;5122767;28;20277;-60
2022/12/31 03:15:20;;;;;;;0.47;0.43;;;;;;;19.86;100.00;100168.50;5118655;28;20280;-60
2022/12/31 03:17:49;;;;;;;1.20;1.17;;;;;;;19.63;100.00;100173.41;5119971;28;20260;-59
2022/12/31 03:23:00;;;;;;;0.10;0.10;;;;;;;19.82;100.00;100170.13;5117577;28;20302;-60
2022/12/31 03:25:34;;;;;;;0.65;0.65;;;;;;;19.50;100.00;100182.09;5114995;28;20291;-60
2022/12/31 03:28:03;;;;;;;0.17;0.17;;;;;;;19.71;100.00;100179.38;5116268;28;20035;-61
2022/12/31 03:30:30;;;;;;;0.50;0.50;;;;;;;20.64;100.00;100173.69;5117079;28;20263;-59
2022/12/31 03:32:57;;;;;;;0.30;0.30;;;;;;;19.75;100.00;100167.72;5099434;28;20280;-61
2022/12/31 03:35:24;;;;;;;9.35;3.30;;;;;;;20.65;100.00;100175.31;5120909;28;20280;-60
2022/12/31 03:37:50;;;;;;;3.00;2.73;;;;;;;20.59;100.00;100160.13;5122961;28;20042;-61
2022/12/31 03:40:17;;;;;;;0.52;0.52;;;;;;;21.15;100.00;100163.63;5124203;28;20390;-60
2022/12/31 03:42:44;;;;;;;0.47;0.47;;;;;;;21.66;100.00;100172.47;5124223;28;20035;-60
2022/12/31 03:45:10;;;;;;;0.50;0.40;;;;;;;21.87;100.00;100175.81;5115768;28;20284;-61
2022/12/31 03:47:36;;;;;;;0.33;0.33;;;;;;;22.33;100.00;100182.66;5113013;28;20036;-60
2022/12/31 03:50:04;;;;;;;0.17;0.17;;;;;;;21.59;100.00;100184.47;5120422;28;20262;-60
2022/12/31 03:52:30;;;;;;;0.27;0.17;;;;;;;20.92;100.00;100180.38;5115273;28;20039;-59
2022/12/31 03:54:55;;;;;;;0.20;0.20;;;;;;;19.79;100.00;100170.66;5119783;28;20397;-60
2022/12/31 03:57:22;;;;;;;1.33;1.23;;;;;;;20.02;100.00;100169.31;5122410;28;20050;-60
2022/12/31 03:59:48;;;;;;;0.60;0.60;;;;;;;22.20;100.00;100176.00;5119285;28;20047;-61
2022/12/31 04:02:14;;;;;;;0.53;0.53;;;;;;;20.58;100.00;100189.19;5117933;28;20267;-61
2022/12/31 04:04:40;;;;;;;0.20;0.20;;;;;;;22.01;100.00;100184.91;5119618;28;20253;-60
2022/12/31 04:07:06;;;;;;;0.17;0.17;;;;;;;19.93;100.00;100173.66;5123117;28;20287;-62
2022/12/31 04:09:32;;;;;;;0.57;0.57;;;;;;;19.72;100.00;100170.97;5118894;28;20051;-60
2022/12/31 04:11:57;;;;;;;0.33;0.33;;;;;;;21.30;100.00;100171.66;5120467;28;20035;-61
2022/12/31 04:14:23;;;;;;;1.65;0.55;;;;;;;19.61;100.00;100159.31;5122216;28;20035;-60
2022/12/31 04:16:48;;;;;;;1.30;1.20;;;;;;;20.32;100.00;100159.44;5124790;28;20032;-60
2022/12/31 04:19:14;;;;;;;0.35;0.35;;;;;;;21.45;100.00;100162.56;5121009;28;20039;-61
2022/12/31 04:21:39;;;;;;;0.47;0.40;;;;;;;20.63;100.00;100153.06;5119953;28;20047;-61
2022/12/31 04:24:05;;;;;;;2.53;1.23;;;;;;;19.95;100.00;100148.97;5122009;28;20058;-60
2022/12/31 04:26:31;;;;;;;;;;;;;;;20.97;100.00;100148.81;5120873;28;20063;-60
2022/12/31 04:28:57;;;;;;;1.67;1.33;;;;;;;20.20;100.00;100157.03;5100708;28;19912;-61
2022/12/31 04:31:23;;;;;;;0.20;0.20;;;;;;;21.09;100.00;100143.00;5118002;28;20028;-59
2022/12/31 04:33:48;;;;;;;2.23;1.03;;;;;;;20.63;100.00;100142.19;5123125;28;20055;-60
2022/12/31 04:36:14;;;;;;;0.88;0.88;;;;;;;21.79;100.00;100133.72;5105113;28;20057;-60
2022/12/31 04:38:40;;;;;;;;;;;;;;;21.10;100.00;100131.03;5121645;28;20036;-59
2022/12/31 04:41:18;;;;;;;0.57;0.57;;;;;;;18.55;100.00;100128.00;5113613;28;19912;-59
2022/12/31 04:43:50;;;;;;;0.10;0.10;;;;;;;19.10;100.00;100134.91;5122428;28;20031;-61
2022/12/31 04:46:17;;;;;;;0.20;0.20;;;;;;;18.52;100.00;100146.69;5114863;28;20344;-60
2022/12/31 04:48:42;;;;;;;0.10;0.10;;;;;;;18.51;100.00;100140.44;5121814;28;20260;-60
2022/12/31 04:51:08;;;;;;;0.00;0.00;;;;;;;18.85;100.00;100139.19;5119649;28;20271;-59
2022/12/31 04:53:33;;;;;;;1.73;0.75;;;;;;;21.02;100.00;100138.72;5116399;28;20066;-60
2022/12/31 04:55:59;;;;;;;1.27;1.20;;;;;;;18.26;100.00;100152.00;5124163;28;20036;-61
2022/12/31 04:58:24;;;;;;;0.10;0.10;;;;;;;20.87;100.00;100163.28;5110263;28;20299;-60
2022/12/31 05:00:53;;;;;;;0.10;0.10;;;;;;;18.43;100.00;100141.75;5124119;28;20032;-60
2022/12/31 05:03:19;;;;;;;0.30;0.30;;;;;;;19.76;100.00;100146.81;5125365;28;20035;-61
2022/12/31 05:05:45;;;;;;;1.33;1.00;;;;;;;19.18;100.00;100147.94;5128405;28;20274;-59
2022/12/31 05:08:10;;;;;;;0.05;0.05;;;;;;;18.86;100.00;100167.91;5130663;28;20059;-61
2022/12/31 05:10:40;;;;;;;0.10;0.10;;;;;;;19.30;100.00;100163.94;5126043;28;20054;-61
2022/12/31 05:13:05;;;;;;;0.60;0.60;;;;;;;18.78;100.00;100151.09;5123763;28;20044;-60
2022/12/31 05:15:31;;;;;;;0.10;0.10;;;;;;;18.42;100.00;100153.69;5123671;28;20303;-60
2022/12/31 05:17:57;;;;;;;0.20;0.20;;;;;;;18.82;100.00;100151.38;5125826;28;20032;-60
2022/12/31 05:20:22;;;;;;;0.23;0.23;;;;;;;20.02;100.00;100150.31;5121036;28;20059;-60
2022/12/31 05:22:48;;;;;;;0.10;0.10;;;;;;;21.10;100.00;100155.50;5128181;28;20027;-60
2022/12/31 05:25:14;;;;;;;1.00;1.00;;;;;;;22.85;100.00;100157.50;5109244;28;20028;-60
2022/12/31 05:27:39;;;;;;;0.10;0.10;;;;;;;20.95;100.00;100153.72;5129819;28;20054;-61
2022/12/31 05:30:05;;;;;;;0.10;0.10;;;;;;;21.75;100.00;100154.44;5127571;28;20062;-60
2022/12/31 05:32:31;;;;;;;;;;;;;;;22.86;100.00;100164.59;5120003;28;20271;-59
2022/12/31 05:34:58;;;;;;;0.00;0.00;;;;;;;17.11;100.00;100153.06;5126326;28;19920;-61
2022/12/31 05:37:27;;;;;;;0.00;0.00;;;;;;;18.24;100.00;100173.09;5119992;28;20032;-61
2022/12/31 05:39:53;;;;;;;0.20;0.20;;;;;;;15.05;100.00;100152.69;5133621;28;20328;-59
2022/12/31 05:42:20;;;;;;;0.30;0.30;;;;;;;14.48;100.00;100159.66;5125155;28;20292;-60
2022/12/31 05:44:46;;;;;;;0.15;0.15;;;;;;;14.39;100.00;100162.97;5122010;28;20272;-59
2022/12/31 05:47:12;;;;;;;0.10;0.10;;;;;;;14.47;100.00;100176.84;5123626;28;20038;-61
2022/12/31 05:49:37;;;;;;;0.00;0.00;;;;;;;14.60;100.00;100166.91;5119950;28;20058;-61
2022/12/31 05:52:03;;;;;;;0.08;0.08;;;;;;;14.99;100.00;100172.53;5123028;28;20047;-60
2022/12/31 05:54:28;;;;;;;0.00;0.00;;;;;;;14.95;100.00;100179.41;5119906;28;20040;-60
2022/12/31 05:56:54;;;;;;;0.00;0.00;;;;;;;14.81;100.00;100173.50;5126782;28;20050;-60
2022/12/31 05:59:20;;;;;;;0.40;0.20;;;;;;;17.31;100.00;100184.06;5129770;28;20039;-61
2022/12/31 06:01:46;;;;;;;0.03;0.03;;;;;;;14.62;100.00;100170.97;5123719;28;20028;-59
2022/12/31 06:04:12;;;;;;;0.10;0.10;;;;;;;14.86;100.00;100172.81;5124684;28;20050;-60
2022/12/31 06:06:37;;;;;;;0.20;0.20;;;;;;;14.75;100.00;100172.59;5121096;28;20276;-60
2022/12/31 06:09:03;;;;;;;0.00;0.00;;;;;;;14.77;100.00;100177.75;5124200;28;20324;-61
2022/12/31 06:11:28;;;;;;;0.40;0.40;;;;;;;14.74;100.00;100181.72;5126574;28;20035;-61
2022/12/31 06:13:55;;;;;;;0.17;0.15;;;;;;;14.93;100.00;100176.16;5123753;28;20062;-60
2022/12/31 06:16:21;;;;;;;0.10;0.10;;;;;;;14.74;100.00;100179.03;5117888;28;20031;-61
2022/12/31 06:18:49;;;;;;;0.87;0.40;;;;;;;14.70;100.00;100183.22;5127060;28;20044;-61
2022/12/31 06:21:18;;;;;;;0.17;0.17;;;;;;;15.23;100.00;100188.56;5121958;28;20304;-60
2022/12/31 06:23:44;;;;;;;0.00;0.00;;;;;;;14.71;100.00;100186.78;5121065;28;20296;-60
2022/12/31 06:26:09;;;;;;;0.30;0.30;;;;;;;14.74;100.00;100183.63;5122982;28;20261;-60
2022/12/31 06:28:35;;;;;;;0.10;0.10;;;;;;;14.88;100.00;100186.84;5123019;28;20036;-59
2022/12/31 06:31:03;;;;;;;0.55;0.55;;;;;;;14.85;100.00;100190.00;5119324;28;20040;-60
2022/12/31 06:33:28;;;;;;;0.10;0.10;;;;;;;14.88;100.00;100194.91;5120250;28;20066;-61
2022/12/31 06:35:56;;;;;;;0.00;0.00;;;;;;;15.03;100.00;100199.75;5117290;28;20284;-60
2022/12/31 06:38:21;;;;;;;;;;;;;;;15.16;100.00;100202.16;5105762;28;20261;-60
2022/12/31 06:40:47;;;;;;;0.10;0.10;;;;;;;15.11;100.00;100212.03;5124539;28;20001;-60
2022/12/31 06:43:13;;;;;;;0.10;0.10;;;;;;;15.32;100.00;100223.97;5121265;28;20044;-60
2022/12/31 06:45:39;;;;;;;0.20;0.20;;;;;;;22.74;100.00;100250.31;5119809;28;20115;-62
2022/12/31 06:48:04;;;;;;;0.30;0.30;;;;;;;25.94;100.00;100208.94;5117926;28;20051;-61
2022/12/31 06:50:30;;;;;;;0.50;0.05;;;;;;;23.16;100.00;100209.66;5125860;28;20031;-61
2022/12/31 06:52:56;;;;;;;0.40;0.40;;;;;;;22.89;100.00;100194.78;5100257;28;20092;-61
2022/12/31 06:55:22;;;;;;;0.10;0.10;;;;;;;23.76;100.00;100201.91;5120132;28;20032;-61
2022/12/31 06:57:47;;;;;;;0.00;0.00;;;;;;;23.08;100.00;100201.34;5116812;28;20043;-60
2022/12/31 07:00:13;;;;;;;0.10;0.10;;;;;;;23.35;100.00;100208.84;5122164;28;20027;-60
2022/12/31 07:02:56;;;;;;;0.20;0.20;;;;;;;23.34;100.00;100208.06;5119409;28;20035;-60
2022/12/31 07:05:46;;;;;;;0.17;0.17;;;;;;;24.60;100.00;100204.69;5123796;28;20055;-60
2022/12/31 07:08:38;;;;;;;0.10;0.10;;;;;;;24.01;100.00;100197.94;5120767;28;20335;-61
2022/12/31 07:11:19;;;;;;;1.37;1.27;;;;;;;23.36;100.00;100213.19;5121215;28;20032;-60
2022/12/31 07:14:10;;;;;;;0.30;0.30;;;;;;;23.62;100.00;100210.03;5122449;28;20261;-61
2022/12/31 07:16:52;;;;;;;0.57;0.57;;;;;;;26.06;100.00;100213.84;5118843;28;20280;-60
2022/12/31 07:19:34;;;;;;;0.30;0.30;;;;;;;22.72;100.00;100208.09;5119850;28;20280;-61
2022/12/31 07:22:01;;;;;;;1.63;1.53;;;;;;;21.90;100.00;100202.47;5122313;28;20318;-61
2022/12/31 07:24:27;;;;;;;2.93;0.87;;;;;;;21.72;100.00;100214.88;5121498;28;20020;-60
2022/12/31 07:27:11;;;;;;;1.20;0.80;;;;;;;23.54;100.00;100211.56;5117711;28;20058;-61
2022/12/31 07:29:59;;;;;;;0.50;0.50;;;;;;;22.14;100.00;100218.81;5119801;28;20032;-60
2022/12/31 07:32:39;;;;;;;1.08;1.08;;;;;;;21.67;100.00;100217.63;5116718;28;20048;-60
2022/12/31 07:35:23;;;;;;;25.37;0.83;;;;;;;22.75;100.00;100212.97;5116017;28;20103;-60
2022/12/31 07:38:07;;;;;;;1.60;0.53;;;;;;;22.15;100.00;100220.47;5115086;28;20336;-62
2022/12/31 07:40:55;;;;;;;0.10;0.10;;;;;;;22.06;100.00;100214.81;5116029;28;20050;-61
2022/12/31 07:43:33;;;;;;;0.30;0.20;;;;;;;22.30;100.00;100210.47;5113376;28;20284;-61
2022/12/31 07:46:21;;;;;;;0.00;0.00;;;;;;;17.27;100.00;100289.13;5114660;28;20039;-61
2022/12/31 07:48:47;;;;;;;0.00;0.00;;;;;;;15.26;100.00;100271.56;5114932;28;20036;-61
2022/12/31 07:51:13;;;;;;;13.20;2.40;;;;;;;16.95;100.00;100297.94;5112409;28;20040;-61
2022/12/31 07:53:39;;;;;;;0.00;0.00;;;;;;;27.54;100.00;100287.75;5119455;28;20036;-62
2022/12/31 07:56:07;;;;;;;0.07;0.07;;;;;;;31.18;100.00;100298.81;5117070;28;20101;-62
2022/12/31 07:58:55;;;;;;;0.10;0.10;;;;;;;26.96;100.00;100296.09;5121225;28;20042;-61
2022/12/31 08:01:42;;;;;;;30.80;2.23;;;;;;;25.59;100.00;100282.69;5097775;28;20361;-61
2022/12/31 08:04:36;;;;;;;21.98;1.90;;;;;;;22.83;100.00;100271.44;5118715;28;20264;-61
2022/12/31 08:07:17;;;;;;;10.70;0.97;;;;;;;24.00;100.00;100206.41;5119070;28;20031;-59
2022/12/31 08:09:57;;;;;;;5.47;0.90;;;;;;;24.14;100.00;100215.44;5117935;28;20268;-59
2022/12/31 08:12:26;;;;;;;14.87;1.60;;;;;;;23.48;100.00;100210.84;5117208;28;20279;-61
2022/12/31 08:14:52;;;;;;;9.10;1.10;;;;;;;24.26;100.00;100214.94;5116549;28;20325;-60
2022/12/31 08:17:18;;;;;;;9.03;1.20;;;;;;;23.66;100.00;100226.66;5117397;28;20335;-62
2022/12/31 08:19:45;;;;;;;0.75;0.35;;;;;;;22.40;100.00;100228.63;5119787;28;20260;-59
2022/12/31 08:22:42;;;;;;;0.00;0.00;;;;;;;24.67;100.00;100242.56;5116661;28;20084;-60
2022/12/31 08:25:42;;;;;;;0.10;0.10;;;;;;;22.20;100.00;100266.69;5118850;28;20265;-60
2022/12/31 08:28:51;;;;;;;1.30;1.10;;;;;;;22.03;100.00;100252.69;5120059;28;20269;-60
2022/12/31 08:31:39;;;;;;;0.00;0.00;;;;;;;22.91;100.00;100259.91;5109133;28;20303;-59
2022/12/31 08:34:11;;;;;;;;;;;;;;;22.51;100.00;100259.31;5110619;28;20314;-61
2022/12/31 08:36:54;;;;;;;0.10;0.10;;;;;;;22.67;100.00;100258.03;5095813;28;19927;-60
2022/12/31 08:39:34;;;;;;;0.10;0.10;;;;;;;22.34;100.00;100274.16;5116415;28;20280;-59
2022/12/31 08:42:03;;;;;;;0.10;0.10;;;;;;;22.32;100.00;100284.53;5111224;28;20523;-61
2022/12/31 08:44:46;;;;;;;0.10;0.10;;;;;;;21.85;100.00;100297.78;5113078;28;20292;-61
2022/12/31 08:47:36;;;;;;;0.00;0.00;;;;;;;21.49;100.00;100301.53;5110222;28;20269;-61
2022/12/31 08:50:02;;;;;;;0.10;0.10;;;;;;;21.03;100.00;100322.47;5106778;28;20260;-61
2022/12/31 08:52:29;;;;;;;0.00;0.00;;;;;;;21.57;100.00;100311.81;5110200;28;20294;-60
2022/12/31 08:54:54;;;;;;;0.00;0.00;;;;;;;21.58;100.00;100326.25;5105492;28;20087;-61
2022/12/31 08:57:36;;;;;;;0.10;0.10;;;;;;;21.61;100.00;100312.88;5110608;28;20576;-60
2022/12/31 09:00:05;;;;;;;0.20;0.20;;;;;;;21.78;100.00;100317.16;5113801;28;20062;-61
2022/12/31 09:02:40;;;;;;;0.10;0.10;;;;;;;22.32;100.00;100309.06;5118516;28;20339;-61
2022/12/31 09:05:13;;;;;;;0.03;0.03;;;;;;;21.73;100.00;100317.19;5120060;28;20275;-60
2022/12/31 09:08:02;;;;;;;0.00;0.00;;;;;;;22.76;100.00;100332.59;5120499;28;20271;-60
2022/12/31 09:10:56;;;;;;;0.00;0.00;;;;;;;25.47;100.00;100329.78;5094477;28;20295;-61
2022/12/31 09:13:34;;;;;;;0.87;0.73;;;;;;;25.02;100.00;100339.47;5074079;28;20297;-60
2022/12/31 09:16:19;;;;;;;0.00;0.00;;;;;;;23.96;100.00;100336.44;5117655;28;20286;-61
2022/12/31 09:18:45;;;;;;;0.10;0.10;;;;;;;22.98;100.00;100353.06;5119097;28;20268;-60
2022/12/31 09:21:13;;;;;;;0.20;0.20;;;;;;;21.98;100.00;100345.31;5121017;28;20256;-60
2022/12/31 09:23:40;;;;;;;0.00;0.00;;;;;;;21.00;100.00;100349.38;5120845;28;20028;-60
2022/12/31 09:26:27;;;;;;;0.50;0.50;;;;;;;20.93;100.00;100352.38;5116580;28;20260;-60
2022/12/31 09:29:33;;;;;;;0.10;0.10;;;;;;;21.44;100.00;100350.50;5119021;28;20039;-60
2022/12/31 09:32:14;;;;;;;0.20;0.20;;;;;;;22.56;100.00;100349.97;5110904;28;20394;-58
2022/12/31 09:34:51;;;;;;;0.30;0.20;;;;;;;21.47;100.00;100344.53;5117157;28;20284;-58
2022/12/31 09:37:20;;;;;;;;;;;;;;;22.34;100.00;100358.59;5117461;28;20028;-60
2022/12/31 09:39:47;;;;;;;0.00;0.00;;;;;;;22.13;100.00;100355.25;5117450;28;19912;-58
2022/12/31 09:42:46;;;;;;;0.00;0.00;;;;;;;25.56;100.00;100358.03;5123038;28;20119;-57
2022/12/31 09:45:36;;;;;;;0.03;0.03;;;;;;;23.87;100.00;100353.50;5121531;28;20059;-59
2022/12/31 09:48:44;;;;;;;0.10;0.10;;;;;;;22.92;100.00;100351.50;5118581;28;20060;-58
2022/12/31 09:51:27;;;;;;;0.10;0.10;;;;;;;23.67;100.00;100375.66;5120664;28;20036;-59
2022/12/31 09:54:29;;;;;;;0.87;0.80;;;;;;;24.88;100.00;100382.41;5124684;28;20057;-58
2022/12/31 09:57:19;;;;;;;0.20;0.20;;;;;;;23.22;100.00;100374.03;5121426;28;20027;-58
2022/12/31 09:59:54;;;;;;;0.20;0.20;;;;;;;23.77;100.00;100379.03;5103760;28;20035;-57
2022/12/31 10:02:40;;;;;;;0.20;0.20;;;;;;;23.72;100.00;100387.31;5099007;28;20036;-57
2022/12/31 10:05:11;;;;;;;0.00;0.00;;;;;;;23.19;100.00;100380.91;5119259;28;20032;-58
2022/12/31 10:08:00;;;;;;;0.40;0.40;;;;;;;22.67;100.00;100394.28;5116980;28;20032;-58
2022/12/31 10:10:33;;;;;;;0.67;0.57;;;;;;;22.62;100.00;100380.72;5118954;28;20032;-58
2022/12/31 10:13:22;;;;;;;0.03;0.03;;;;;;;22.14;100.00;100384.91;5115545;28;20044;-58
2022/12/31 10:15:57;;;;;;;2.43;2.20;;;;;;;22.15;100.00;100392.00;5123633;28;20100;-57
2022/12/31 10:18:45;;;;;;;2.43;1.30;;;;;;;22.14;100.00;100389.56;5116989;28;20057;-55
2022/12/31 10:21:32;;;;;;;0.20;0.20;;;;;;;21.64;100.00;100382.25;5120604;28;20027;-54
2022/12/31 10:24:41;;;;;;;0.10;0.10;;;;;;;26.71;100.00;100388.94;5117097;28;20061;-55
2022/12/31 10:27:15;;;;;;;0.20;0.20;;;;;;;24.24;100.00;100358.41;5115434;28;20042;-58
2022/12/31 10:29:47;;;;;;;0.73;0.23;;;;;;;22.90;100.00;100383.69;5119648;28;20513;-59
2022/12/31 10:32:38;;;;;;;4.80;0.97;;;;;;;21.92;100.00;100388.91;5124067;28;20047;-54
2022/12/31 10:35:12;;;;;;;0.00;0.00;;;;;;;23.16;100.00;100392.38;5120920;28;20032;-57
2022/12/31 10:38:11;;;;;;;0.20;0.20;;;;;;;23.01;100.00;100373.50;5123569;28;20057;-57
2022/12/31 10:41:02;;;;;;;0.13;0.13;;;;;;;23.63;100.00;100381.72;5122699;28;20040;-56
2022/12/31 10:44:06;;;;;;;0.70;0.33;;;;;;;22.67;100.00;100394.28;5118600;28;20032;-56
2022/12/31 10:46:46;;;;;;;0.93;0.93;;;;;;;23.17;100.00;100374.91;5107766;28;20042;-57
2022/12/31 10:49:36;;;;;;;0.10;0.10;;;;;;;23.67;100.00;100384.66;5114780;28;20047;-56
2022/12/31 10:52:14;;;;;;;11.17;2.63;;;;;;;23.58;100.00;100389.97;5109902;28;20043;-55
2022/12/31 10:54:54;;;;;;;6.57;2.23;;;;;;;23.84;100.00;100389.59;5109683;28;20039;-56
2022/12/31 10:57:42;;;;;;;6.70;2.20;;;;;;;22.74;100.00;100377.59;5115086;28;20058;-57
2022/12/31 11:00:11;;;;;;;12.73;2.53;;;;;;;23.62;100.00;100365.63;5117490;28;20047;-58
2022/12/31 11:03:07;;;;;;;7.37;2.00;;;;;;;22.25;100.00;100369.28;5117827;28;20043;-57
2022/12/31 11:05:55;;;;;;;6.30;2.37;;;;;;;23.98;100.00;100377.91;5113862;28;20038;-57
2022/12/31 11:08:56;;;;;;;6.78;2.28;;;;;;;22.42;100.00;100374.34;5116641;28;20052;-59
2022/12/31 11:12:00;;;;;;;8.63;2.67;;;;;;;22.22;100.00;100369.88;5097494;28;20040;-57
2022/12/31 11:14:59;;;;;;;9.00;2.87;;;;;;;22.13;100.00;100358.78;5115883;28;20047;-56
2022/12/31 11:17:48;;;;;;;8.07;3.30;;;;;;;22.19;100.00;100368.56;5119125;28;20056;-58
2022/12/31 11:21:11;;;;;;;10.00;3.20;;;;;;;22.00;100.00;100367.63;5115834;28;20054;-57
2022/12/31 11:23:58;;;;;;;13.27;3.23;;;;;;;22.46;100.00;100372.69;5015711;28;20027;-56
2022/12/31 11:26:29;;;;;;;7.45;3.15;;;;;;;22.75;100.00;100366.41;5017215;28;20061;-58
2022/12/31 11:29:31;;;;;;;9.80;3.20;;;;;;;22.49;100.00;100365.88;5081642;28;20047;-57
2022/12/31 11:32:35;;;;;;;10.80;2.93;;;;;;;22.58;100.00;100366.03;5115517;28;20032;-57
2022/12/31 11:35:06;;;;;;;7.30;2.30;;;;;;;22.45;100.00;100392.84;5118185;28;20094;-56
2022/12/31 11:37:40;;;;;;;8.33;2.10;;;;;;;23.40;100.00;100380.66;5119308;28;20024;-52
2022/12/31 11:40:43;;;;;;;16.23;11.27;;;;;;;22.89;100.00;100395.72;5112333;28;20042;-55
2022/12/31 11:43:19;;;;;;;9.63;2.63;;;;;;;22.77;100.00;100391.44;5115283;28;20042;-52
2022/12/31 11:45:58;;;;;;;5.50;1.57;;;;;;;22.44;100.00;100383.03;5120956;28;20026;-55
2022/12/31 11:48:48;;;;;;;6.27;2.40;;;;;;;22.72;100.00;100375.16;5117083;28;20110;-56
2022/12/31 11:51:34;;;;;;;18.23;3.90;;;;;;;23.26;100.00;100385.22;5114256;28;20076;-49
2022/12/31 11:54:45;;;;;;;9.80;2.43;;;;;;;22.81;100.00;100385.41;5115933;28;20075;-54
2022/12/31 11:57:33;;;;;;;12.70;3.20;;;;;;;22.56;100.00;100390.03;5113965;28;20047;-54
2022/12/31 12:00:17;;;;;;;9.93;2.43;;;;;;;22.72;100.00;100409.75;5119758;28;20056;-50
2022/12/31 12:02:48;;;;;;;8.13;2.00;;;;;;;22.65;100.00;100382.88;5115420;28;20036;-55
2022/12/31 12:05:20;;;;;;;10.43;5.57;;;;;;;22.08;100.00;100393.41;5115694;28;20096;-55